Terminal Aerodrome Forecast
Issued by NWS Cleveland, OH

Home | Current Version | Previous Version | Graphics & Text | Print | Product List | Glossary On
Versions: 1 2 3 4 5 6 7 8 9 10 11 12 13 14 15 16 17 18 19 20 21 22 23 24 25 26 27 28 29
000
FTUS41 KCLE 011124
TAFCLE
TAF
KCLE 011124Z 0112/0218 21005KT P6SM SKC
     FM011300 24006KT P6SM SCT040
     FM011700 30008KT P6SM SCT050
     FM020000 VRB03KT P6SM BKN250
     FM020600 VRB03KT 4SM BR BKN250
     FM021500 23006KT P6SM BKN250=

USA.gov is the U.S. government's official web portal to all federal, state and local government web resources and services.